createdAt,value
2017-10-26T00:00:33.088Z,33.70
2017-10-26T00:02:59.405Z,32.33
2017-10-26T00:05:27.340Z,34.33
2017-10-26T00:07:53.635Z,32.37
2017-10-26T00:10:26.669Z,32.53
2017-10-26T00:12:55.571Z,32.10
2017-10-26T00:15:21.957Z,30.73
2017-10-26T00:17:49.022Z,32.37
2017-10-26T00:20:15.333Z,31.40
2017-10-26T00:22:41.645Z,33.83
2017-10-26T00:25:08.720Z,31.03
2017-10-26T00:27:35.861Z,32.13
2017-10-26T00:30:02.269Z,33.00
2017-10-26T00:32:28.581Z,34.00
2017-10-26T00:34:54.917Z,31.33
2017-10-26T00:37:21.242Z,32.53
2017-10-26T00:39:47.558Z,30.97
2017-10-26T00:42:13.861Z,31.23
2017-10-26T00:44:40.165Z,31.43
2017-10-26T00:47:06.480Z,32.73
2017-10-26T00:49:32.796Z,32.43
2017-10-26T00:51:59.233Z,34.93
2017-10-26T00:54:26.256Z,33.43
2017-10-26T00:56:52.555Z,34.50
2017-10-26T00:59:18.834Z,33.77
2017-10-26T01:01:45.132Z,33.00
2017-10-26T01:04:11.655Z,30.90
2017-10-26T01:06:37.968Z,32.10
2017-10-26T01:09:05.002Z,31.53
2017-10-26T01:11:31.301Z,33.97
2017-10-26T01:13:58.707Z,31.43
2017-10-26T01:16:25.020Z,33.00
2017-10-26T01:18:51.336Z,32.50
2017-10-26T01:21:17.626Z,33.07
2017-10-26T01:23:44.678Z,33.63
2017-10-26T01:26:11.327Z,32.23
2017-10-26T01:28:39.367Z,34.30
2017-10-26T01:31:07.517Z,34.10
2017-10-26T01:33:33.784Z,33.03
2017-10-26T01:36:00.068Z,31.57
2017-10-26T01:38:26.389Z,32.30
2017-10-26T01:40:53.430Z,35.07
2017-10-26T01:43:19.717Z,34.60
2017-10-26T01:45:46.007Z,34.10
2017-10-26T01:48:12.722Z,33.40
2017-10-26T01:50:39.066Z,32.77
2017-10-26T01:53:06.115Z,33.87
2017-10-26T01:55:32.417Z,34.67
2017-10-26T01:57:58.729Z,32.50
2017-10-26T02:00:25.024Z,31.60
2017-10-26T02:02:51.330Z,33.53
2017-10-26T02:05:18.361Z,31.40
2017-10-26T02:07:44.685Z,33.77
2017-10-26T02:10:10.995Z,33.33
2017-10-26T02:12:39.481Z,33.33
2017-10-26T02:15:05.770Z,35.43
2017-10-26T02:17:32.789Z,32.77
2017-10-26T02:19:59.065Z,32.80
2017-10-26T02:22:26.129Z,31.70
2017-10-26T02:24:53.205Z,35.20
2017-10-26T02:27:19.502Z,33.77
2017-10-26T02:29:58.177Z,35.57
2017-10-26T02:32:24.488Z,33.23
2017-10-26T02:34:50.777Z,35.70
2017-10-26T02:37:17.821Z,33.90
2017-10-26T02:39:44.141Z,30.70
2017-10-26T02:42:10.408Z,33.80
2017-10-26T02:44:36.736Z,33.63
2017-10-26T02:47:09.913Z,33.17
2017-10-26T02:49:36.234Z,32.97
2017-10-26T02:52:02.342Z,34.23
2017-10-26T02:54:28.462Z,35.13
2017-10-26T02:56:55.322Z,32.57
2017-10-26T02:59:22.227Z,33.07
2017-10-26T03:01:48.345Z,32.17
2017-10-26T03:04:14.458Z,33.27
2017-10-26T03:06:41.573Z,32.10
2017-10-26T03:09:07.700Z,35.40
2017-10-26T03:11:34.559Z,34.30
2017-10-26T03:14:01.420Z,30.97
2017-10-26T03:16:28.260Z,34.50
2017-10-26T03:18:55.046Z,34.47
2017-10-26T03:21:21.899Z,32.90
2017-10-26T03:23:48.025Z,33.40
2017-10-26T03:26:14.134Z,33.73
2017-10-26T03:28:40.229Z,34.80
2017-10-26T03:31:06.329Z,33.07
2017-10-26T03:33:34.637Z,34.00
2017-10-26T03:36:00.780Z,33.80
2017-10-26T03:38:26.901Z,33.40
2017-10-26T03:40:52.996Z,32.97
2017-10-26T03:43:19.661Z,35.67
2017-10-26T03:45:45.985Z,35.97
2017-10-26T03:48:13.538Z,34.10
2017-10-26T03:50:39.873Z,35.67
2017-10-26T03:53:06.906Z,33.37
2017-10-26T03:55:35.301Z,35.23
2017-10-26T03:58:01.377Z,35.90
2017-10-26T04:00:28.198Z,32.77
2017-10-26T04:02:54.326Z,32.67
2017-10-26T04:05:20.656Z,31.90
2017-10-26T04:07:46.932Z,31.00
2017-10-26T04:10:13.216Z,31.27
2017-10-26T04:12:39.516Z,30.23
2017-10-26T04:15:05.801Z,30.90
2017-10-26T04:17:32.089Z,29.33
2017-10-26T04:19:59.112Z,30.10
2017-10-26T04:22:25.407Z,29.67
2017-10-26T04:24:51.713Z,28.90
2017-10-26T04:27:18.144Z,28.83
2017-10-26T04:29:44.425Z,27.23
2017-10-26T04:32:10.811Z,27.30
2017-10-26T04:34:37.839Z,27.20
2017-10-26T04:37:04.156Z,28.40
2017-10-26T04:39:31.172Z,27.03
2017-10-26T04:41:57.457Z,26.33
2017-10-26T04:44:23.741Z,24.30
2017-10-26T04:46:50.203Z,27.80
2017-10-26T04:49:17.830Z,25.90
2017-10-26T04:51:44.920Z,25.80
2017-10-26T04:54:11.471Z,24.60
2017-10-26T04:56:37.745Z,25.87
2017-10-26T04:59:04.063Z,25.57
2017-10-26T05:01:31.121Z,25.47
2017-10-26T05:03:58.193Z,26.60
2017-10-26T05:06:24.549Z,27.47
2017-10-26T05:08:50.862Z,25.20
2017-10-26T05:11:17.152Z,25.20
2017-10-26T05:13:44.197Z,26.00
2017-10-26T05:16:10.502Z,25.57
2017-10-26T05:18:36.852Z,24.80
2017-10-26T05:21:05.683Z,25.70
2017-10-26T05:23:31.993Z,27.07
2017-10-26T05:25:58.313Z,25.13
2017-10-26T05:28:24.908Z,26.17
2017-10-26T05:30:51.249Z,25.77
2017-10-26T05:33:17.585Z,24.27
2017-10-26T05:35:43.920Z,26.10
2017-10-26T05:38:11.040Z,24.00
2017-10-26T05:40:37.433Z,26.30
2017-10-26T05:43:03.792Z,25.17
2017-10-26T05:48:01.606Z,24.37
2017-10-26T05:50:27.937Z,25.70
2017-10-26T05:52:54.252Z,23.87
2017-10-26T05:55:33.152Z,23.90
2017-10-26T05:58:09.418Z,23.40
2017-10-26T06:00:36.768Z,23.77
2017-10-26T06:03:02.864Z,23.97
2017-10-26T06:05:29.720Z,25.20
2017-10-26T06:07:55.805Z,24.53
2017-10-26T06:10:21.872Z,24.83
2017-10-26T06:13:03.261Z,24.80
2017-10-26T06:15:32.590Z,26.53
2017-10-26T06:17:58.711Z,26.03
2017-10-26T06:20:24.817Z,24.43
2017-10-26T06:22:54.610Z,25.90
2017-10-26T06:25:20.697Z,25.37
2017-10-26T06:27:46.796Z,25.23
2017-10-26T06:30:12.894Z,24.57
2017-10-26T06:32:39.875Z,25.20
2017-10-26T06:35:06.014Z,24.00
2017-10-26T06:37:32.873Z,24.43
2017-10-26T06:39:59.000Z,24.37
2017-10-26T06:42:25.129Z,23.90
2017-10-26T06:44:53.445Z,22.53
2017-10-26T06:47:19.533Z,25.00
2017-10-26T06:49:46.384Z,24.37
2017-10-26T06:52:12.650Z,24.43
2017-10-26T06:54:38.780Z,25.60
2017-10-26T06:57:05.646Z,24.40
2017-10-26T06:59:37.065Z,23.47
2017-10-26T07:02:03.208Z,23.27
2017-10-26T07:04:29.390Z,25.00
2017-10-26T07:06:55.536Z,23.80
2017-10-26T07:09:21.649Z,24.03
2017-10-26T07:11:47.748Z,25.20
2017-10-26T07:14:13.862Z,24.07
2017-10-26T07:16:39.987Z,22.10
2017-10-26T07:19:06.110Z,23.50
2017-10-26T07:21:32.280Z,23.17
2017-10-26T07:23:58.386Z,22.97
2017-10-26T07:26:24.534Z,23.00
2017-10-26T07:28:50.656Z,24.30
2017-10-26T07:31:23.147Z,22.90
2017-10-26T07:33:53.587Z,23.33
2017-10-26T07:36:19.766Z,22.30
2017-10-26T07:38:46.970Z,21.13
2017-10-26T07:41:13.156Z,22.50
2017-10-26T07:43:39.997Z,22.73
2017-10-26T07:46:06.865Z,20.33
2017-10-26T07:48:50.182Z,22.00
2017-10-26T07:51:16.313Z,22.47
2017-10-26T07:54:00.152Z,20.40
2017-10-26T07:56:26.239Z,19.43
2017-10-26T07:58:52.337Z,20.60
2017-10-26T08:01:24.597Z,20.27
2017-10-26T08:03:50.681Z,21.60
2017-10-26T08:06:16.789Z,20.00
2017-10-26T08:08:42.924Z,19.57
2017-10-26T08:11:09.038Z,19.50
2017-10-26T08:13:35.129Z,20.30
2017-10-26T08:16:01.244Z,19.37
2017-10-26T08:18:29.345Z,19.20
2017-10-26T08:20:56.179Z,19.70
2017-10-26T08:23:22.269Z,18.70
2017-10-26T08:25:48.381Z,19.67
2017-10-26T08:28:14.501Z,19.30
2017-10-26T08:30:40.584Z,18.53
2017-10-26T08:33:07.402Z,18.60
2017-10-26T08:35:36.849Z,19.00
2017-10-26T08:38:02.941Z,18.90
2017-10-26T08:40:29.021Z,17.80
2017-10-26T08:42:55.119Z,18.67
2017-10-26T08:45:21.216Z,19.60
2017-10-26T08:47:48.403Z,16.57
2017-10-26T08:50:15.245Z,16.67
2017-10-26T08:52:48.162Z,18.07
2017-10-26T08:55:14.511Z,18.00
2017-10-26T08:57:40.592Z,16.03
2017-10-26T09:00:07.414Z,16.30
2017-10-26T09:02:33.530Z,15.50
2017-10-26T09:04:59.634Z,14.97
2017-10-26T09:07:25.721Z,14.77
2017-10-26T09:09:58.609Z,16.00
2017-10-26T09:12:24.702Z,16.60
2017-10-26T09:14:51.287Z,17.27
2017-10-26T09:17:18.630Z,18.13
2017-10-26T09:19:44.788Z,16.30
2017-10-26T09:22:10.882Z,17.63
2017-10-26T09:24:43.424Z,17.53
2017-10-26T09:27:09.521Z,17.30
2017-10-26T09:29:35.709Z,18.53
2017-10-26T09:32:01.797Z,17.83
2017-10-26T09:34:28.634Z,17.70
2017-10-26T09:36:54.710Z,18.00
2017-10-26T09:39:21.591Z,18.20
2017-10-26T09:41:50.952Z,19.20
2017-10-26T09:44:17.038Z,17.90
2017-10-26T09:46:43.867Z,18.00
2017-10-26T09:49:10.056Z,18.90
2017-10-26T09:51:36.140Z,18.40
2017-10-26T09:54:02.224Z,18.07
2017-10-26T09:56:28.319Z,18.47
2017-10-26T09:58:57.613Z,19.70
2017-10-26T10:01:23.762Z,21.20
2017-10-26T10:03:50.577Z,21.30
2017-10-26T10:06:17.433Z,19.57
2017-10-26T10:08:44.294Z,19.60
2017-10-26T10:11:11.229Z,20.17
2017-10-26T10:13:37.305Z,18.90
2017-10-26T10:16:09.811Z,19.23
2017-10-26T10:18:35.889Z,19.43
2017-10-26T10:21:02.740Z,18.67
2017-10-26T10:23:29.601Z,18.43
2017-10-26T10:25:55.686Z,18.70
2017-10-26T10:28:21.803Z,17.30
2017-10-26T10:30:53.909Z,17.47
2017-10-26T10:33:20.042Z,18.47
2017-10-26T10:35:46.349Z,18.70
2017-10-26T10:38:12.513Z,14.90
2017-10-26T10:40:39.425Z,13.93
2017-10-26T10:43:06.282Z,15.43
2017-10-26T10:45:32.374Z,14.80
2017-10-26T10:48:02.308Z,14.13
2017-10-26T10:50:28.403Z,13.50
2017-10-26T10:52:54.487Z,13.57
2017-10-26T10:55:20.589Z,13.67
2017-10-26T10:57:46.696Z,14.37
2017-10-26T11:00:18.793Z,12.37
2017-10-26T11:02:44.870Z,12.50
2017-10-26T11:05:15.575Z,12.20
2017-10-26T11:07:42.461Z,12.50
2017-10-26T11:10:08.542Z,11.63
2017-10-26T11:12:35.398Z,12.20
2017-10-26T11:15:02.250Z,13.10
2017-10-26T11:17:28.341Z,12.10
2017-10-26T11:19:54.448Z,12.83
2017-10-26T11:22:25.648Z,11.10
2017-10-26T11:24:51.778Z,9.90
2017-10-26T11:27:18.648Z,9.83
2017-10-26T11:29:44.734Z,11.00
2017-10-26T11:32:11.550Z,9.20
2017-10-26T11:34:37.678Z,9.03
2017-10-26T11:37:03.840Z,9.93
2017-10-26T11:39:29.921Z,9.67
2017-10-26T11:42:02.797Z,10.70
2017-10-26T11:44:28.907Z,11.90
2017-10-26T11:46:55.083Z,9.93
2017-10-26T11:49:21.166Z,10.00
2017-10-26T11:51:47.301Z,9.77
2017-10-26T11:54:13.558Z,9.20
2017-10-26T11:56:39.687Z,8.87
2017-10-26T11:59:05.805Z,11.33
2017-10-26T12:01:35.850Z,10.47
2017-10-26T12:04:01.985Z,9.90
2017-10-26T12:06:28.148Z,10.20
2017-10-26T12:08:54.281Z,10.17
2017-10-26T12:11:21.132Z,9.30
2017-10-26T12:13:47.256Z,10.43
2017-10-26T12:16:13.497Z,9.70
2017-10-26T12:18:39.629Z,10.30
2017-10-26T12:21:10.881Z,10.03
2017-10-26T12:23:37.753Z,11.60
2017-10-26T12:26:03.878Z,9.97
2017-10-26T12:28:30.128Z,9.43
2017-10-26T12:30:56.257Z,11.93
2017-10-26T12:33:22.402Z,10.33
2017-10-26T12:35:48.558Z,9.53
2017-10-26T12:38:14.732Z,9.17
2017-10-26T12:40:42.947Z,9.30
2017-10-26T12:43:09.143Z,9.53
2017-10-26T12:45:35.285Z,8.33
2017-10-26T12:48:01.401Z,9.93
2017-10-26T12:50:28.314Z,9.83
2017-10-26T12:52:54.429Z,10.33
2017-10-26T12:55:20.581Z,9.80
2017-10-26T12:57:50.207Z,9.40
2017-10-26T13:00:16.340Z,10.37
2017-10-26T13:02:42.486Z,8.50
2017-10-26T13:05:09.388Z,8.97
2017-10-26T13:07:36.306Z,8.80
2017-10-26T13:10:03.192Z,8.60
2017-10-26T13:12:29.325Z,7.90
2017-10-26T13:14:55.972Z,8.57
2017-10-26T13:17:22.844Z,8.93
2017-10-26T13:19:49.706Z,8.70
2017-10-26T13:22:15.832Z,9.10
2017-10-26T13:24:41.949Z,8.83
2017-10-26T13:27:08.877Z,8.57
2017-10-26T13:32:06.613Z,10.07
2017-10-26T13:34:33.489Z,9.23
2017-10-26T13:37:00.345Z,9.37
2017-10-26T13:39:26.562Z,10.97
2017-10-26T13:41:52.694Z,10.87
2017-10-26T13:44:18.889Z,10.17
2017-10-26T13:46:45.784Z,10.00
2017-10-26T13:49:11.912Z,9.00
2017-10-26T13:51:38.036Z,8.93
2017-10-26T13:54:04.125Z,9.17
2017-10-26T13:56:30.247Z,9.77
2017-10-26T13:58:56.342Z,8.23
2017-10-26T14:01:24.503Z,8.00
2017-10-26T14:03:51.647Z,9.30
2017-10-26T14:06:19.332Z,9.57
2017-10-26T14:08:45.513Z,8.57
2017-10-26T14:11:12.405Z,8.97
2017-10-26T14:13:38.522Z,7.60
2017-10-26T14:16:06.644Z,8.47
2017-10-26T14:18:32.717Z,9.33
2017-10-26T14:20:59.569Z,8.77
2017-10-26T14:23:25.681Z,10.10
2017-10-26T14:25:51.781Z,9.60
2017-10-26T14:28:17.883Z,9.50
2017-10-26T14:30:44.019Z,9.63
2017-10-26T14:33:10.126Z,10.37
2017-10-26T14:35:36.224Z,10.33
2017-10-26T14:38:02.349Z,10.13
2017-10-26T14:40:28.688Z,10.50
2017-10-26T14:42:54.795Z,10.10
2017-10-26T14:45:20.908Z,10.57
2017-10-26T14:47:47.824Z,9.90
2017-10-26T14:50:19.593Z,9.30
2017-10-26T14:52:45.693Z,10.50
2017-10-26T14:55:12.540Z,11.00
2017-10-26T14:57:39.427Z,10.20
2017-10-26T15:00:05.495Z,11.50
2017-10-26T15:02:31.584Z,10.30
2017-10-26T15:04:57.966Z,10.73
2017-10-26T15:07:24.157Z,10.63
2017-10-26T15:09:50.637Z,10.60
2017-10-26T15:12:16.883Z,10.10
2017-10-26T15:14:43.768Z,10.23
2017-10-26T15:17:09.860Z,11.37
2017-10-26T15:19:36.015Z,10.93
2017-10-26T15:22:02.170Z,10.23
2017-10-26T15:24:28.989Z,9.90
2017-10-26T15:26:55.152Z,10.57
2017-10-26T15:29:21.362Z,11.00
2017-10-26T15:31:47.489Z,11.10
2017-10-26T15:34:13.699Z,10.60
2017-10-26T15:36:40.621Z,10.63
2017-10-26T15:39:06.714Z,10.00
2017-10-26T15:41:33.568Z,10.50
2017-10-26T15:43:59.656Z,10.03
2017-10-26T15:46:29.595Z,9.53
2017-10-26T15:48:56.416Z,9.50
2017-10-26T15:51:22.508Z,8.60
2017-10-26T15:53:48.600Z,9.93
2017-10-26T15:56:14.697Z,9.50
2017-10-26T15:58:40.799Z,8.63
2017-10-26T16:01:06.911Z,9.07
2017-10-26T16:03:33.013Z,9.27
2017-10-26T16:05:59.127Z,9.00
2017-10-26T16:08:29.513Z,8.20
2017-10-26T16:10:55.640Z,8.50
2017-10-26T16:13:22.492Z,8.80
2017-10-26T16:15:49.346Z,9.27
2017-10-26T16:18:15.692Z,9.03
2017-10-26T16:20:41.921Z,8.77
2017-10-26T16:23:08.072Z,8.37
2017-10-26T16:25:34.176Z,9.17
2017-10-26T16:28:00.323Z,9.37
2017-10-26T16:30:26.410Z,9.97
2017-10-26T16:32:52.598Z,8.97
2017-10-26T16:35:19.449Z,9.73
2017-10-26T16:37:45.636Z,9.70
2017-10-26T16:40:11.790Z,9.93
2017-10-26T16:42:38.090Z,9.60
2017-10-26T16:45:04.971Z,9.60
2017-10-26T16:47:31.197Z,10.50
2017-10-26T16:49:58.180Z,10.40
2017-10-26T16:52:25.092Z,9.77
2017-10-26T16:54:51.245Z,9.83
2017-10-26T16:57:17.375Z,8.83
2017-10-26T16:59:43.493Z,9.13
2017-10-26T17:02:09.627Z,9.50
2017-10-26T17:04:35.766Z,9.50
2017-10-26T17:07:02.209Z,9.13
2017-10-26T17:09:28.355Z,10.43
2017-10-26T17:11:55.207Z,10.20
2017-10-26T17:14:21.356Z,9.67
2017-10-26T17:16:47.467Z,9.97
2017-10-26T17:19:13.804Z,10.10
2017-10-26T17:21:39.905Z,10.27
2017-10-26T17:24:06.055Z,11.10
2017-10-26T17:26:32.179Z,11.43
2017-10-26T17:28:58.312Z,10.73
2017-10-26T17:31:24.453Z,11.23
2017-10-26T17:33:50.582Z,10.23
2017-10-26T17:36:16.728Z,11.73
2017-10-26T17:38:42.849Z,11.40
2017-10-26T17:41:09.713Z,11.20
2017-10-26T17:43:36.573Z,11.60
2017-10-26T17:46:03.447Z,12.10
2017-10-26T17:48:30.321Z,11.80
2017-10-26T17:50:56.454Z,11.67
2017-10-26T17:53:23.357Z,12.03
2017-10-26T17:55:49.453Z,12.53
2017-10-26T17:58:16.373Z,15.20
2017-10-26T18:00:42.516Z,15.67
2017-10-26T18:03:08.756Z,15.80
2017-10-26T18:05:34.842Z,17.00
2017-10-26T18:08:01.142Z,16.57
2017-10-26T18:10:28.543Z,15.47
2017-10-26T18:12:56.414Z,17.50
2017-10-26T18:15:22.593Z,17.23
2017-10-26T18:17:50.050Z,17.70
2017-10-26T18:20:16.192Z,17.90
2017-10-26T18:22:42.292Z,19.60
2017-10-26T18:25:08.413Z,18.17
2017-10-26T18:27:34.517Z,18.80
2017-10-26T18:30:01.374Z,18.53
2017-10-26T18:32:28.250Z,19.10
2017-10-26T18:34:54.446Z,18.30
2017-10-26T18:37:21.539Z,21.10
2017-10-26T18:39:48.399Z,19.77
2017-10-26T18:42:14.489Z,20.07
2017-10-26T18:44:40.586Z,20.53
2017-10-26T18:47:06.689Z,20.60
2017-10-26T18:49:32.809Z,19.30
2017-10-26T18:51:59.848Z,19.70
2017-10-26T18:54:25.933Z,21.10
2017-10-26T18:56:56.332Z,19.17
2017-10-26T18:59:22.427Z,20.63
2017-10-26T19:01:54.244Z,19.33
2017-10-26T19:04:20.342Z,19.50
2017-10-26T19:06:46.590Z,20.43
2017-10-26T19:09:12.816Z,20.37
2017-10-26T19:11:39.908Z,21.00
2017-10-26T19:14:06.033Z,20.20
2017-10-26T19:16:32.156Z,20.40
2017-10-26T19:18:59.024Z,18.93
2017-10-26T19:21:25.933Z,18.97
2017-10-26T19:23:52.049Z,20.50
2017-10-26T19:26:18.271Z,20.20
2017-10-26T19:28:44.389Z,19.70
2017-10-26T19:31:10.537Z,21.03
2017-10-26T19:33:38.651Z,20.20
2017-10-26T19:36:05.681Z,21.50
2017-10-26T19:41:02.913Z,21.30
2017-10-26T19:43:29.093Z,21.80
2017-10-26T19:45:55.198Z,21.77
2017-10-26T19:48:21.366Z,22.37
2017-10-26T19:50:47.628Z,22.03
2017-10-26T19:53:13.770Z,22.30
2017-10-26T19:55:39.889Z,21.23
2017-10-26T19:58:06.025Z,23.30
2017-10-26T20:00:32.989Z,24.33
2017-10-26T20:02:59.140Z,23.47
2017-10-26T20:05:25.986Z,24.67
2017-10-26T20:07:52.132Z,24.20
2017-10-26T20:10:18.364Z,21.53
2017-10-26T20:12:44.477Z,22.03
2017-10-26T20:15:10.609Z,20.53
2017-10-26T20:17:37.454Z,20.80
2017-10-26T20:20:04.105Z,21.10
2017-10-26T20:22:31.027Z,22.10
2017-10-26T20:24:57.174Z,21.33
2017-10-26T20:27:23.305Z,20.70
2017-10-26T20:29:50.152Z,21.20
2017-10-26T20:32:17.029Z,20.20
2017-10-26T20:34:43.912Z,19.70
2017-10-26T20:37:10.075Z,20.30
2017-10-26T20:39:36.208Z,21.10
2017-10-26T20:42:03.604Z,19.57
2017-10-26T20:44:29.768Z,20.30
2017-10-26T20:46:55.899Z,20.13
2017-10-26T20:49:29.211Z,20.70
2017-10-26T20:52:01.630Z,19.17
2017-10-26T20:54:33.829Z,19.87
2017-10-26T20:57:06.193Z,21.83
2017-10-26T20:59:38.582Z,19.53
2017-10-26T21:02:10.814Z,19.43
2017-10-26T21:04:43.974Z,18.13
2017-10-26T21:07:16.305Z,18.40
2017-10-26T21:09:58.007Z,18.60
2017-10-26T21:12:37.088Z,19.90
2017-10-26T21:15:05.571Z,20.07
2017-10-26T21:17:31.803Z,20.47
2017-10-26T21:19:57.924Z,20.97
2017-10-26T21:22:24.788Z,18.17
2017-10-26T21:24:51.144Z,17.97
2017-10-26T21:27:27.048Z,19.37
2017-10-26T21:29:58.039Z,17.57
2017-10-26T21:32:29.034Z,16.50
2017-10-26T21:34:55.484Z,16.47
2017-10-26T21:37:21.900Z,15.67
2017-10-26T21:39:48.277Z,13.33
2017-10-26T21:42:14.814Z,13.60
2017-10-26T21:44:41.907Z,12.80
2017-10-26T21:47:08.238Z,13.47
2017-10-26T21:49:34.585Z,14.07
2017-10-26T21:52:00.884Z,12.87
2017-10-26T21:54:27.237Z,13.13
2017-10-26T21:56:53.547Z,14.03
2017-10-26T21:59:19.852Z,12.50
2017-10-26T22:01:46.237Z,12.50
2017-10-26T22:04:12.561Z,13.73
2017-10-26T22:06:39.689Z,13.97
2017-10-26T22:09:06.010Z,14.50
2017-10-26T22:11:32.354Z,15.17
2017-10-26T22:13:58.670Z,14.00
2017-10-26T22:16:27.423Z,14.90
2017-10-26T22:18:53.755Z,16.00
2017-10-26T22:21:24.476Z,15.97
2017-10-26T22:23:50.784Z,15.83
2017-10-26T22:26:17.086Z,14.80
2017-10-26T22:28:43.432Z,14.87
2017-10-26T22:31:09.750Z,17.07
2017-10-26T22:33:36.085Z,15.90
2017-10-26T22:36:02.438Z,14.47
2017-10-26T22:38:30.944Z,15.83
2017-10-26T22:40:58.484Z,14.70
2017-10-26T22:43:24.914Z,14.40
2017-10-26T22:45:51.294Z,16.13
2017-10-26T22:48:17.619Z,15.70
2017-10-26T22:50:43.945Z,16.00
2017-10-26T22:53:11.021Z,16.37
2017-10-26T22:55:39.040Z,15.30
2017-10-26T22:58:05.386Z,15.90
2017-10-26T23:00:31.757Z,16.70
2017-10-26T23:03:00.969Z,16.60
2017-10-26T23:05:27.365Z,16.10
2017-10-26T23:07:53.681Z,15.60
2017-10-26T23:10:20.141Z,16.80
2017-10-26T23:12:46.453Z,15.40
2017-10-26T23:15:12.777Z,14.70
2017-10-26T23:17:40.004Z,15.93
2017-10-26T23:20:06.361Z,18.10
2017-10-26T23:22:32.714Z,16.30
2017-10-26T23:24:59.024Z,14.73
2017-10-26T23:27:25.427Z,15.20
2017-10-26T23:29:51.754Z,14.67
2017-10-26T23:32:18.066Z,14.50
2017-10-26T23:34:44.396Z,13.60
2017-10-26T23:37:11.443Z,16.23
2017-10-26T23:39:37.760Z,16.23
2017-10-26T23:42:04.175Z,14.90
2017-10-26T23:44:30.561Z,14.40
2017-10-26T23:46:56.873Z,14.93
2017-10-26T23:49:24.051Z,15.00
2017-10-26T23:51:51.299Z,14.10
2017-10-26T23:54:21.978Z,14.17
2017-10-26T23:56:48.304Z,12.90
2017-10-26T23:59:17.539Z,13.63
